sensor_id;sensor_type;location;lat;lon;timestamp;P1;durP1;ratioP1;P2;durP2;ratioP2
68653;SDS011;55636;51.108;13.622;2022-11-06T00:00:36;8.10;;;6.40;;
68653;SDS011;55636;51.108;13.622;2022-11-06T00:01:39;12.63;;;6.90;;
68653;SDS011;55636;51.108;13.622;2022-11-06T00:02:44;10.90;;;6.90;;
68653;SDS011;55636;51.108;13.622;2022-11-06T00:03:47;8.00;;;6.73;;
68653;SDS011;55636;51.108;13.622;2022-11-06T00:04:49;18.20;;;7.10;;
68653;SDS011;55636;51.108;13.622;2022-11-06T00:05:51;11.10;;;6.80;;
68653;SDS011;55636;51.108;13.622;2022-11-06T00:07:12;7.07;;;6.37;;
68653;SDS011;55636;51.108;13.622;2022-11-06T00:08:14;11.60;;;6.43;;
68653;SDS011;55636;51.108;13.622;2022-11-06T00:09:18;24.60;;;7.10;;
68653;SDS011;55636;51.108;13.622;2022-11-06T00:10:21;8.03;;;6.67;;
68653;SDS011;55636;51.108;13.622;2022-11-06T00:11:24;7.13;;;6.40;;
68653;SDS011;55636;51.108;13.622;2022-11-06T00:12:27;19.97;;;6.63;;
68653;SDS011;55636;51.108;13.622;2022-11-06T00:13:29;23.13;;;7.30;;
68653;SDS011;55636;51.108;13.622;2022-11-06T00:14:33;12.30;;;6.73;;
68653;SDS011;55636;51.108;13.622;2022-11-06T00:15:36;8.83;;;6.03;;
68653;SDS011;55636;51.108;13.622;2022-11-06T00:16:38;28.23;;;6.80;;
68653;SDS011;55636;51.108;13.622;2022-11-06T00:17:42;24.37;;;7.10;;
68653;SDS011;55636;51.108;13.622;2022-11-06T00:18:44;25.30;;;7.10;;
68653;SDS011;55636;51.108;13.622;2022-11-06T00:19:46;15.67;;;6.00;;
68653;SDS011;55636;51.108;13.622;2022-11-06T00:20:49;8.90;;;6.17;;
68653;SDS011;55636;51.108;13.622;2022-11-06T00:21:53;17.53;;;6.23;;
68653;SDS011;55636;51.108;13.622;2022-11-06T00:22:59;9.33;;;6.13;;
68653;SDS011;55636;51.108;13.622;2022-11-06T00:24:02;13.23;;;6.97;;
68653;SDS011;55636;51.108;13.622;2022-11-06T00:25:06;11.57;;;7.07;;
68653;SDS011;55636;51.108;13.622;2022-11-06T00:26:11;13.57;;;7.27;;
68653;SDS011;55636;51.108;13.622;2022-11-06T00:27:15;33.63;;;6.80;;
68653;SDS011;55636;51.108;13.622;2022-11-06T00:28:18;7.10;;;5.70;;
68653;SDS011;55636;51.108;13.622;2022-11-06T00:29:28;32.17;;;6.53;;
68653;SDS011;55636;51.108;13.622;2022-11-06T00:30:30;9.60;;;6.00;;
68653;SDS011;55636;51.108;13.622;2022-11-06T00:31:35;12.53;;;6.00;;
68653;SDS011;55636;51.108;13.622;2022-11-06T00:32:38;9.83;;;5.97;;
68653;SDS011;55636;51.108;13.622;2022-11-06T00:33:41;13.60;;;6.50;;
68653;SDS011;55636;51.108;13.622;2022-11-06T00:34:43;14.97;;;6.97;;
68653;SDS011;55636;51.108;13.622;2022-11-06T00:35:45;11.60;;;6.30;;
68653;SDS011;55636;51.108;13.622;2022-11-06T00:36:48;19.87;;;6.53;;
68653;SDS011;55636;51.108;13.622;2022-11-06T00:37:50;24.53;;;6.87;;
68653;SDS011;55636;51.108;13.622;2022-11-06T00:38:53;13.43;;;6.07;;
68653;SDS011;55636;51.108;13.622;2022-11-06T00:39:56;13.83;;;6.40;;
68653;SDS011;55636;51.108;13.622;2022-11-06T00:41:01;7.23;;;5.47;;
68653;SDS011;55636;51.108;13.622;2022-11-06T00:42:09;11.83;;;6.00;;
68653;SDS011;55636;51.108;13.622;2022-11-06T00:43:11;6.43;;;5.70;;
68653;SDS011;55636;51.108;13.622;2022-11-06T00:44:13;7.97;;;5.93;;
68653;SDS011;55636;51.108;13.622;2022-11-06T00:45:16;6.83;;;6.00;;
68653;SDS011;55636;51.108;13.622;2022-11-06T00:46:18;12.40;;;6.20;;
68653;SDS011;55636;51.108;13.622;2022-11-06T00:47:20;9.10;;;6.07;;
68653;SDS011;55636;51.108;13.622;2022-11-06T00:48:22;9.83;;;5.97;;
68653;SDS011;55636;51.108;13.622;2022-11-06T00:49:26;7.03;;;5.90;;
68653;SDS011;55636;51.108;13.622;2022-11-06T00:50:28;7.20;;;5.50;;
68653;SDS011;55636;51.108;13.622;2022-11-06T00:51:32;6.33;;;5.60;;
68653;SDS011;55636;51.108;13.622;2022-11-06T00:52:39;6.97;;;5.77;;
68653;SDS011;55636;51.108;13.622;2022-11-06T00:53:41;6.33;;;5.73;;
68653;SDS011;55636;51.108;13.622;2022-11-06T00:54:44;6.97;;;5.97;;
68653;SDS011;55636;51.108;13.622;2022-11-06T00:55:49;7.50;;;5.83;;
68653;SDS011;55636;51.108;13.622;2022-11-06T00:56:56;7.80;;;5.93;;
68653;SDS011;55636;51.108;13.622;2022-11-06T00:57:58;9.07;;;5.90;;
68653;SDS011;55636;51.108;13.622;2022-11-06T00:59:02;7.27;;;5.80;;
68653;SDS011;55636;51.108;13.622;2022-11-06T01:00:06;7.53;;;5.80;;
68653;SDS011;55636;51.108;13.622;2022-11-06T01:01:13;7.00;;;6.30;;
68653;SDS011;55636;51.108;13.622;2022-11-06T01:02:18;12.80;;;6.07;;
68653;SDS011;55636;51.108;13.622;2022-11-06T01:03:22;8.37;;;5.80;;
68653;SDS011;55636;51.108;13.622;2022-11-06T01:04:25;10.47;;;6.07;;
68653;SDS011;55636;51.108;13.622;2022-11-06T01:05:27;6.47;;;5.50;;
68653;SDS011;55636;51.108;13.622;2022-11-06T01:06:46;7.07;;;6.17;;
68653;SDS011;55636;51.108;13.622;2022-11-06T01:07:50;5.90;;;5.20;;
68653;SDS011;55636;51.108;13.622;2022-11-06T01:08:53;7.00;;;5.60;;
68653;SDS011;55636;51.108;13.622;2022-11-06T01:09:56;6.73;;;5.77;;
68653;SDS011;55636;51.108;13.622;2022-11-06T01:11:12;8.77;;;6.00;;
68653;SDS011;55636;51.108;13.622;2022-11-06T01:12:16;7.27;;;5.30;;
68653;SDS011;55636;51.108;13.622;2022-11-06T01:13:21;6.80;;;5.80;;
68653;SDS011;55636;51.108;13.622;2022-11-06T01:14:23;6.27;;;5.67;;
68653;SDS011;55636;51.108;13.622;2022-11-06T01:15:26;6.40;;;5.13;;
68653;SDS011;55636;51.108;13.622;2022-11-06T01:16:29;5.90;;;5.30;;
68653;SDS011;55636;51.108;13.622;2022-11-06T01:17:34;6.63;;;5.40;;
68653;SDS011;55636;51.108;13.622;2022-11-06T01:18:40;6.23;;;5.00;;
68653;SDS011;55636;51.108;13.622;2022-11-06T01:19:44;6.30;;;5.43;;
68653;SDS011;55636;51.108;13.622;2022-11-06T01:20:49;5.80;;;5.20;;
68653;SDS011;55636;51.108;13.622;2022-11-06T01:21:51;5.60;;;5.00;;
68653;SDS011;55636;51.108;13.622;2022-11-06T01:22:54;6.33;;;5.30;;
68653;SDS011;55636;51.108;13.622;2022-11-06T01:23:58;6.37;;;5.10;;
68653;SDS011;55636;51.108;13.622;2022-11-06T01:25:06;6.20;;;5.00;;
68653;SDS011;55636;51.108;13.622;2022-11-06T01:26:10;6.20;;;5.40;;
68653;SDS011;55636;51.108;13.622;2022-11-06T01:27:13;6.27;;;5.23;;
68653;SDS011;55636;51.108;13.622;2022-11-06T01:28:30;5.50;;;4.83;;
68653;SDS011;55636;51.108;13.622;2022-11-06T01:29:33;5.87;;;5.17;;
68653;SDS011;55636;51.108;13.622;2022-11-06T01:30:36;6.13;;;5.30;;
68653;SDS011;55636;51.108;13.622;2022-11-06T01:31:38;6.90;;;5.20;;
68653;SDS011;55636;51.108;13.622;2022-11-06T01:32:44;5.97;;;5.37;;
68653;SDS011;55636;51.108;13.622;2022-11-06T01:33:53;7.10;;;5.27;;
68653;SDS011;55636;51.108;13.622;2022-11-06T01:34:56;5.77;;;4.97;;
68653;SDS011;55636;51.108;13.622;2022-11-06T01:35:58;5.93;;;5.17;;
68653;SDS011;55636;51.108;13.622;2022-11-06T01:37:00;6.87;;;5.00;;
68653;SDS011;55636;51.108;13.622;2022-11-06T01:38:03;6.30;;;4.97;;
68653;SDS011;55636;51.108;13.622;2022-11-06T01:39:10;5.60;;;4.93;;
68653;SDS011;55636;51.108;13.622;2022-11-06T01:40:13;6.20;;;4.83;;
68653;SDS011;55636;51.108;13.622;2022-11-06T01:41:22;6.00;;;5.33;;
68653;SDS011;55636;51.108;13.622;2022-11-06T01:42:26;5.47;;;4.93;;
68653;SDS011;55636;51.108;13.622;2022-11-06T01:46:36;5.30;;;4.80;;
68653;SDS011;55636;51.108;13.622;2022-11-06T01:47:38;7.30;;;5.33;;
68653;SDS011;55636;51.108;13.622;2022-11-06T01:48:41;5.87;;;5.13;;
68653;SDS011;55636;51.108;13.622;2022-11-06T01:49:50;5.90;;;5.13;;
68653;SDS011;55636;51.108;13.622;2022-11-06T01:50:56;6.80;;;5.23;;
68653;SDS011;55636;51.108;13.622;2022-11-06T01:52:09;5.70;;;5.00;;
68653;SDS011;55636;51.108;13.622;2022-11-06T01:53:22;7.97;;;5.10;;
68653;SDS011;55636;51.108;13.622;2022-11-06T01:54:26;5.93;;;5.03;;
68653;SDS011;55636;51.108;13.622;2022-11-06T01:55:33;5.87;;;5.07;;
68653;SDS011;55636;51.108;13.622;2022-11-06T01:56:39;5.10;;;4.60;;
68653;SDS011;55636;51.108;13.622;2022-11-06T01:57:43;5.17;;;4.67;;
68653;SDS011;55636;51.108;13.622;2022-11-06T01:58:48;5.70;;;5.00;;
68653;SDS011;55636;51.108;13.622;2022-11-06T01:59:53;7.33;;;4.57;;
68653;SDS011;55636;51.108;13.622;2022-11-06T02:00:56;7.03;;;4.90;;
68653;SDS011;55636;51.108;13.622;2022-11-06T02:01:59;5.30;;;4.80;;
68653;SDS011;55636;51.108;13.622;2022-11-06T02:03:02;6.70;;;4.83;;
68653;SDS011;55636;51.108;13.622;2022-11-06T02:04:39;6.30;;;5.00;;
68653;SDS011;55636;51.108;13.622;2022-11-06T02:05:37;5.43;;;4.53;;
68653;SDS011;55636;51.108;13.622;2022-11-06T02:06:40;5.60;;;4.33;;
68653;SDS011;55636;51.108;13.622;2022-11-06T02:07:42;5.20;;;4.70;;
68653;SDS011;55636;51.108;13.622;2022-11-06T02:08:46;5.03;;;4.30;;
68653;SDS011;55636;51.108;13.622;2022-11-06T02:09:48;6.37;;;4.90;;
68653;SDS011;55636;51.108;13.622;2022-11-06T02:10:50;5.27;;;4.70;;
68653;SDS011;55636;51.108;13.622;2022-11-06T02:11:56;5.70;;;4.63;;
68653;SDS011;55636;51.108;13.622;2022-11-06T02:16:23;5.17;;;4.53;;
68653;SDS011;55636;51.108;13.622;2022-11-06T02:19:50;5.33;;;4.37;;
68653;SDS011;55636;51.108;13.622;2022-11-06T02:25:04;5.97;;;4.70;;
68653;SDS011;55636;51.108;13.622;2022-11-06T02:27:57;4.60;;;4.00;;
68653;SDS011;55636;51.108;13.622;2022-11-06T02:30:35;4.80;;;4.30;;
68653;SDS011;55636;51.108;13.622;2022-11-06T02:31:45;5.67;;;4.40;;
68653;SDS011;55636;51.108;13.622;2022-11-06T02:32:54;5.23;;;4.23;;
68653;SDS011;55636;51.108;13.622;2022-11-06T02:34:05;5.73;;;4.13;;
68653;SDS011;55636;51.108;13.622;2022-11-06T02:35:21;4.80;;;4.30;;
68653;SDS011;55636;51.108;13.622;2022-11-06T02:36:31;5.13;;;4.10;;
68653;SDS011;55636;51.108;13.622;2022-11-06T02:37:36;5.70;;;4.57;;
68653;SDS011;55636;51.108;13.622;2022-11-06T02:38:44;5.10;;;4.17;;
68653;SDS011;55636;51.108;13.622;2022-11-06T02:39:51;5.07;;;4.40;;
68653;SDS011;55636;51.108;13.622;2022-11-06T02:40:57;4.67;;;4.27;;
68653;SDS011;55636;51.108;13.622;2022-11-06T02:42:04;5.13;;;3.93;;
68653;SDS011;55636;51.108;13.622;2022-11-06T02:43:11;4.23;;;3.83;;
68653;SDS011;55636;51.108;13.622;2022-11-06T02:44:16;6.20;;;4.53;;
68653;SDS011;55636;51.108;13.622;2022-11-06T02:45:24;4.60;;;3.90;;
68653;SDS011;55636;51.108;13.622;2022-11-06T02:46:38;5.53;;;4.63;;
68653;SDS011;55636;51.108;13.622;2022-11-06T02:48:04;5.00;;;4.50;;
68653;SDS011;55636;51.108;13.622;2022-11-06T02:49:14;5.30;;;4.47;;
68653;SDS011;55636;51.108;13.622;2022-11-06T02:50:25;5.27;;;4.10;;
68653;SDS011;55636;51.108;13.622;2022-11-06T02:51:35;5.40;;;3.90;;
68653;SDS011;55636;51.108;13.622;2022-11-06T02:52:47;4.37;;;3.97;;
68653;SDS011;55636;51.108;13.622;2022-11-06T02:53:54;5.00;;;4.17;;
68653;SDS011;55636;51.108;13.622;2022-11-06T02:55:05;5.17;;;3.93;;
68653;SDS011;55636;51.108;13.622;2022-11-06T02:56:10;4.50;;;4.03;;
68653;SDS011;55636;51.108;13.622;2022-11-06T02:57:15;4.80;;;4.00;;
68653;SDS011;55636;51.108;13.622;2022-11-06T02:59:54;5.10;;;4.20;;
68653;SDS011;55636;51.108;13.622;2022-11-06T03:01:04;4.80;;;4.10;;
68653;SDS011;55636;51.108;13.622;2022-11-06T03:02:32;4.70;;;4.20;;
68653;SDS011;55636;51.108;13.622;2022-11-06T03:03:39;4.97;;;4.00;;
68653;SDS011;55636;51.108;13.622;2022-11-06T03:04:50;4.67;;;3.90;;
68653;SDS011;55636;51.108;13.622;2022-11-06T03:06:06;5.23;;;4.30;;
68653;SDS011;55636;51.108;13.622;2022-11-06T03:07:24;5.30;;;4.13;;
68653;SDS011;55636;51.108;13.622;2022-11-06T03:08:53;4.87;;;4.10;;
68653;SDS011;55636;51.108;13.622;2022-11-06T03:10:00;5.53;;;4.03;;
68653;SDS011;55636;51.108;13.622;2022-11-06T03:11:07;5.50;;;4.50;;
68653;SDS011;55636;51.108;13.622;2022-11-06T03:12:27;4.87;;;4.17;;
68653;SDS011;55636;51.108;13.622;2022-11-06T03:17:55;5.77;;;4.37;;
68653;SDS011;55636;51.108;13.622;2022-11-06T03:19:20;4.67;;;4.20;;
68653;SDS011;55636;51.108;13.622;2022-11-06T03:20:30;5.07;;;3.97;;
68653;SDS011;55636;51.108;13.622;2022-11-06T03:23:23;4.83;;;3.90;;
68653;SDS011;55636;51.108;13.622;2022-11-06T03:24:42;4.40;;;4.00;;
68653;SDS011;55636;51.108;13.622;2022-11-06T03:27:31;5.47;;;4.37;;
68653;SDS011;55636;51.108;13.622;2022-11-06T03:28:37;5.17;;;4.17;;
68653;SDS011;55636;51.108;13.622;2022-11-06T03:29:53;5.10;;;4.03;;
68653;SDS011;55636;51.108;13.622;2022-11-06T03:31:18;7.67;;;4.20;;
68653;SDS011;55636;51.108;13.622;2022-11-06T03:32:30;4.97;;;4.10;;
68653;SDS011;55636;51.108;13.622;2022-11-06T03:33:39;4.70;;;4.23;;
68653;SDS011;55636;51.108;13.622;2022-11-06T03:34:51;4.47;;;4.07;;
68653;SDS011;55636;51.108;13.622;2022-11-06T03:36:09;7.03;;;4.63;;
68653;SDS011;55636;51.108;13.622;2022-11-06T03:37:38;5.40;;;4.30;;
68653;SDS011;55636;51.108;13.622;2022-11-06T03:38:47;5.90;;;4.13;;
68653;SDS011;55636;51.108;13.622;2022-11-06T03:39:53;4.80;;;4.00;;
68653;SDS011;55636;51.108;13.622;2022-11-06T03:41:00;5.77;;;4.40;;
68653;SDS011;55636;51.108;13.622;2022-11-06T03:42:12;4.53;;;4.13;;
68653;SDS011;55636;51.108;13.622;2022-11-06T03:43:19;5.13;;;4.17;;
68653;SDS011;55636;51.108;13.622;2022-11-06T03:44:26;5.17;;;4.00;;
68653;SDS011;55636;51.108;13.622;2022-11-06T03:45:29;5.23;;;4.10;;
68653;SDS011;55636;51.108;13.622;2022-11-06T03:46:35;6.37;;;4.40;;
68653;SDS011;55636;51.108;13.622;2022-11-06T03:47:42;4.47;;;4.07;;
68653;SDS011;55636;51.108;13.622;2022-11-06T03:48:53;4.63;;;3.90;;
68653;SDS011;55636;51.108;13.622;2022-11-06T03:50:01;5.20;;;4.30;;
68653;SDS011;55636;51.108;13.622;2022-11-06T03:51:17;4.80;;;3.90;;
68653;SDS011;55636;51.108;13.622;2022-11-06T03:52:26;4.90;;;3.93;;
68653;SDS011;55636;51.108;13.622;2022-11-06T03:53:39;5.53;;;4.27;;
68653;SDS011;55636;51.108;13.622;2022-11-06T03:54:51;5.67;;;4.33;;
68653;SDS011;55636;51.108;13.622;2022-11-06T03:56:01;5.07;;;4.40;;
68653;SDS011;55636;51.108;13.622;2022-11-06T03:57:10;5.27;;;4.50;;
68653;SDS011;55636;51.108;13.622;2022-11-06T03:58:21;4.50;;;4.10;;
68653;SDS011;55636;51.108;13.622;2022-11-06T03:59:31;5.90;;;4.50;;
68653;SDS011;55636;51.108;13.622;2022-11-06T04:00:39;4.43;;;4.03;;
68653;SDS011;55636;51.108;13.622;2022-11-06T04:01:43;5.43;;;4.60;;
68653;SDS011;55636;51.108;13.622;2022-11-06T04:02:53;5.10;;;4.30;;
68653;SDS011;55636;51.108;13.622;2022-11-06T04:04:10;5.30;;;4.20;;
68653;SDS011;55636;51.108;13.622;2022-11-06T04:05:19;5.97;;;4.60;;
68653;SDS011;55636;51.108;13.622;2022-11-06T04:07:51;5.07;;;4.50;;
68653;SDS011;55636;51.108;13.622;2022-11-06T04:09:16;4.87;;;4.10;;
68653;SDS011;55636;51.108;13.622;2022-11-06T04:10:41;4.53;;;4.13;;
68653;SDS011;55636;51.108;13.622;2022-11-06T04:12:08;5.73;;;3.93;;
68653;SDS011;55636;51.108;13.622;2022-11-06T04:13:33;6.17;;;4.70;;
68653;SDS011;55636;51.108;13.622;2022-11-06T04:14:58;4.77;;;3.90;;
68653;SDS011;55636;51.108;13.622;2022-11-06T04:16:01;5.67;;;4.60;;
68653;SDS011;55636;51.108;13.622;2022-11-06T04:17:05;5.50;;;4.23;;
68653;SDS011;55636;51.108;13.622;2022-11-06T04:18:16;5.03;;;4.50;;
68653;SDS011;55636;51.108;13.622;2022-11-06T04:19:32;5.53;;;4.30;;
68653;SDS011;55636;51.108;13.622;2022-11-06T04:20:37;4.77;;;4.17;;
68653;SDS011;55636;51.108;13.622;2022-11-06T04:23:22;4.90;;;4.40;;
68653;SDS011;55636;51.108;13.622;2022-11-06T04:24:56;5.87;;;4.40;;
68653;SDS011;55636;51.108;13.622;2022-11-06T04:26:28;6.57;;;4.37;;
68653;SDS011;55636;51.108;13.622;2022-11-06T04:29:16;5.30;;;4.40;;
68653;SDS011;55636;51.108;13.622;2022-11-06T04:30:37;4.73;;;4.13;;
68653;SDS011;55636;51.108;13.622;2022-11-06T04:31:52;4.67;;;4.20;;
68653;SDS011;55636;51.108;13.622;2022-11-06T04:33:24;5.70;;;4.60;;
68653;SDS011;55636;51.108;13.622;2022-11-06T04:35:10;5.20;;;4.33;;
68653;SDS011;55636;51.108;13.622;2022-11-06T04:41:39;4.70;;;4.30;;
68653;SDS011;55636;51.108;13.622;2022-11-06T04:42:57;4.90;;;4.40;;
68653;SDS011;55636;51.108;13.622;2022-11-06T04:44:14;5.17;;;4.33;;
68653;SDS011;55636;51.108;13.622;2022-11-06T04:45:30;6.37;;;4.40;;
68653;SDS011;55636;51.108;13.622;2022-11-06T04:46:38;4.83;;;4.20;;
68653;SDS011;55636;51.108;13.622;2022-11-06T04:47:56;4.83;;;4.07;;
68653;SDS011;55636;51.108;13.622;2022-11-06T04:49:00;4.90;;;4.33;;
68653;SDS011;55636;51.108;13.622;2022-11-06T04:50:05;5.20;;;4.53;;
68653;SDS011;55636;51.108;13.622;2022-11-06T04:51:10;5.03;;;4.53;;
68653;SDS011;55636;51.108;13.622;2022-11-06T04:52:22;6.57;;;4.67;;
68653;SDS011;55636;51.108;13.622;2022-11-06T04:53:28;5.03;;;4.43;;
68653;SDS011;55636;51.108;13.622;2022-11-06T04:54:32;5.73;;;4.30;;
68653;SDS011;55636;51.108;13.622;2022-11-06T04:55:55;5.00;;;4.20;;
68653;SDS011;55636;51.108;13.622;2022-11-06T04:57:09;5.87;;;4.50;;
68653;SDS011;55636;51.108;13.622;2022-11-06T04:58:11;5.07;;;4.40;;
68653;SDS011;55636;51.108;13.622;2022-11-06T04:59:15;5.93;;;4.23;;
68653;SDS011;55636;51.108;13.622;2022-11-06T05:00:18;6.60;;;4.83;;
68653;SDS011;55636;51.108;13.622;2022-11-06T05:01:21;4.57;;;3.90;;
68653;SDS011;55636;51.108;13.622;2022-11-06T05:02:23;6.07;;;4.40;;
68653;SDS011;55636;51.108;13.622;2022-11-06T05:03:26;5.30;;;4.20;;
68653;SDS011;55636;51.108;13.622;2022-11-06T05:04:28;5.23;;;4.40;;
68653;SDS011;55636;51.108;13.622;2022-11-06T05:05:33;4.90;;;3.90;;
68653;SDS011;55636;51.108;13.622;2022-11-06T05:06:35;4.70;;;4.20;;
68653;SDS011;55636;51.108;13.622;2022-11-06T05:07:37;5.17;;;4.30;;
68653;SDS011;55636;51.108;13.622;2022-11-06T05:08:40;6.47;;;4.47;;
68653;SDS011;55636;51.108;13.622;2022-11-06T05:09:42;5.63;;;4.57;;
68653;SDS011;55636;51.108;13.622;2022-11-06T05:10:46;4.83;;;4.33;;
68653;SDS011;55636;51.108;13.622;2022-11-06T05:11:48;4.93;;;4.43;;
68653;SDS011;55636;51.108;13.622;2022-11-06T05:12:51;4.97;;;4.20;;
68653;SDS011;55636;51.108;13.622;2022-11-06T05:13:53;5.17;;;4.67;;
68653;SDS011;55636;51.108;13.622;2022-11-06T05:14:55;7.50;;;4.37;;
68653;SDS011;55636;51.108;13.622;2022-11-06T05:15:58;5.50;;;4.50;;
68653;SDS011;55636;51.108;13.622;2022-11-06T05:17:00;5.10;;;4.60;;
68653;SDS011;55636;51.108;13.622;2022-11-06T05:18:03;5.43;;;4.40;;
68653;SDS011;55636;51.108;13.622;2022-11-06T05:19:06;5.80;;;4.50;;
68653;SDS011;55636;51.108;13.622;2022-11-06T05:20:09;4.93;;;4.50;;
68653;SDS011;55636;51.108;13.622;2022-11-06T05:21:11;5.33;;;4.37;;
68653;SDS011;55636;51.108;13.622;2022-11-06T05:22:32;5.27;;;4.47;;
68653;SDS011;55636;51.108;13.622;2022-11-06T05:23:53;4.80;;;4.30;;
68653;SDS011;55636;51.108;13.622;2022-11-06T05:24:55;4.87;;;4.20;;
68653;SDS011;55636;51.108;13.622;2022-11-06T05:26:00;4.70;;;4.20;;
68653;SDS011;55636;51.108;13.622;2022-11-06T05:27:03;5.47;;;4.57;;
68653;SDS011;55636;51.108;13.622;2022-11-06T05:28:06;5.20;;;4.50;;
68653;SDS011;55636;51.108;13.622;2022-11-06T05:29:10;6.03;;;4.50;;
68653;SDS011;55636;51.108;13.622;2022-11-06T05:30:14;5.97;;;4.50;;
68653;SDS011;55636;51.108;13.622;2022-11-06T05:31:18;5.07;;;4.57;;
68653;SDS011;55636;51.108;13.622;2022-11-06T05:32:23;4.97;;;4.40;;
68653;SDS011;55636;51.108;13.622;2022-11-06T05:33:25;5.57;;;4.30;;
68653;SDS011;55636;51.108;13.622;2022-11-06T05:34:27;6.17;;;4.70;;
68653;SDS011;55636;51.108;13.622;2022-11-06T05:35:30;7.17;;;4.43;;
68653;SDS011;55636;51.108;13.622;2022-11-06T05:36:32;6.10;;;4.63;;
68653;SDS011;55636;51.108;13.622;2022-11-06T05:37:34;5.03;;;4.40;;
68653;SDS011;55636;51.108;13.622;2022-11-06T05:38:36;5.33;;;4.63;;
68653;SDS011;55636;51.108;13.622;2022-11-06T05:39:39;5.03;;;4.20;;
68653;SDS011;55636;51.108;13.622;2022-11-06T05:40:42;5.00;;;4.50;;
68653;SDS011;55636;51.108;13.622;2022-11-06T05:41:45;5.07;;;4.40;;
68653;SDS011;55636;51.108;13.622;2022-11-06T05:42:47;5.20;;;4.20;;
68653;SDS011;55636;51.108;13.622;2022-11-06T05:43:49;5.37;;;4.57;;
68653;SDS011;55636;51.108;13.622;2022-11-06T05:44:52;7.07;;;4.30;;
68653;SDS011;55636;51.108;13.622;2022-11-06T05:45:54;4.90;;;4.40;;
68653;SDS011;55636;51.108;13.622;2022-11-06T05:46:56;5.37;;;4.50;;
68653;SDS011;55636;51.108;13.622;2022-11-06T05:47:59;5.17;;;4.60;;
68653;SDS011;55636;51.108;13.622;2022-11-06T05:49:01;4.90;;;4.17;;
68653;SDS011;55636;51.108;13.622;2022-11-06T05:50:04;6.33;;;4.97;;
68653;SDS011;55636;51.108;13.622;2022-11-06T05:51:07;5.30;;;4.80;;
68653;SDS011;55636;51.108;13.622;2022-11-06T05:52:09;5.43;;;4.57;;
68653;SDS011;55636;51.108;13.622;2022-11-06T05:53:12;4.73;;;4.30;;
68653;SDS011;55636;51.108;13.622;2022-11-06T05:54:14;6.03;;;4.30;;
68653;SDS011;55636;51.108;13.622;2022-11-06T05:55:16;5.03;;;4.53;;
68653;SDS011;55636;51.108;13.622;2022-11-06T05:56:22;6.37;;;4.80;;
68653;SDS011;55636;51.108;13.622;2022-11-06T05:57:24;5.03;;;4.20;;
68653;SDS011;55636;51.108;13.622;2022-11-06T05:58:26;5.77;;;4.60;;
68653;SDS011;55636;51.108;13.622;2022-11-06T05:59:29;5.80;;;4.83;;
68653;SDS011;55636;51.108;13.622;2022-11-06T06:00:31;6.27;;;4.97;;
68653;SDS011;55636;51.108;13.622;2022-11-06T06:01:33;5.87;;;4.60;;
68653;SDS011;55636;51.108;13.622;2022-11-06T06:02:36;6.73;;;4.50;;
68653;SDS011;55636;51.108;13.622;2022-11-06T06:03:38;5.00;;;4.33;;
68653;SDS011;55636;51.108;13.622;2022-11-06T06:04:43;5.20;;;4.50;;
68653;SDS011;55636;51.108;13.622;2022-11-06T06:05:46;7.13;;;5.00;;
68653;SDS011;55636;51.108;13.622;2022-11-06T06:06:48;7.67;;;4.70;;
68653;SDS011;55636;51.108;13.622;2022-11-06T06:07:51;5.23;;;4.37;;
68653;SDS011;55636;51.108;13.622;2022-11-06T06:08:53;5.10;;;4.60;;
68653;SDS011;55636;51.108;13.622;2022-11-06T06:09:55;6.20;;;4.60;;
68653;SDS011;55636;51.108;13.622;2022-11-06T06:10:58;5.90;;;4.70;;
68653;SDS011;55636;51.108;13.622;2022-11-06T06:12:00;6.27;;;4.47;;
68653;SDS011;55636;51.108;13.622;2022-11-06T06:13:02;7.23;;;4.83;;
68653;SDS011;55636;51.108;13.622;2022-11-06T06:14:05;6.57;;;4.80;;
68653;SDS011;55636;51.108;13.622;2022-11-06T06:15:07;5.43;;;4.83;;
68653;SDS011;55636;51.108;13.622;2022-11-06T06:16:10;6.67;;;4.63;;
68653;SDS011;55636;51.108;13.622;2022-11-06T06:17:12;5.43;;;4.87;;
68653;SDS011;55636;51.108;13.622;2022-11-06T06:18:14;5.13;;;4.60;;
68653;SDS011;55636;51.108;13.622;2022-11-06T06:19:17;5.50;;;4.70;;
68653;SDS011;55636;51.108;13.622;2022-11-06T06:20:19;6.27;;;4.53;;
68653;SDS011;55636;51.108;13.622;2022-11-06T06:21:21;6.70;;;4.77;;
68653;SDS011;55636;51.108;13.622;2022-11-06T06:22:23;5.07;;;4.57;;
68653;SDS011;55636;51.108;13.622;2022-11-06T06:23:27;5.73;;;5.03;;
68653;SDS011;55636;51.108;13.622;2022-11-06T06:24:29;5.47;;;4.77;;
68653;SDS011;55636;51.108;13.622;2022-11-06T06:25:31;5.47;;;4.80;;
68653;SDS011;55636;51.108;13.622;2022-11-06T06:26:34;6.67;;;4.90;;
68653;SDS011;55636;51.108;13.622;2022-11-06T06:27:36;6.33;;;4.80;;
68653;SDS011;55636;51.108;13.622;2022-11-06T06:28:38;5.20;;;4.70;;
68653;SDS011;55636;51.108;13.622;2022-11-06T06:29:40;5.53;;;4.67;;
68653;SDS011;55636;51.108;13.622;2022-11-06T06:30:43;5.83;;;4.97;;
68653;SDS011;55636;51.108;13.622;2022-11-06T06:31:45;6.23;;;5.30;;
68653;SDS011;55636;51.108;13.622;2022-11-06T06:32:47;7.10;;;4.97;;
68653;SDS011;55636;51.108;13.622;2022-11-06T06:33:50;5.20;;;4.57;;
68653;SDS011;55636;51.108;13.622;2022-11-06T06:34:53;5.53;;;4.80;;
68653;SDS011;55636;51.108;13.622;2022-11-06T06:35:55;5.50;;;4.97;;
68653;SDS011;55636;51.108;13.622;2022-11-06T06:36:57;6.67;;;5.23;;
68653;SDS011;55636;51.108;13.622;2022-11-06T06:37:59;6.47;;;5.30;;
68653;SDS011;55636;51.108;13.622;2022-11-06T06:39:02;5.90;;;5.30;;
68653;SDS011;55636;51.108;13.622;2022-11-06T06:40:05;5.90;;;5.17;;
68653;SDS011;55636;51.108;13.622;2022-11-06T06:41:08;5.67;;;5.07;;
68653;SDS011;55636;51.108;13.622;2022-11-06T06:42:10;6.93;;;5.90;;
68653;SDS011;55636;51.108;13.622;2022-11-06T06:43:12;6.27;;;5.60;;
68653;SDS011;55636;51.108;13.622;2022-11-06T06:44:15;6.47;;;5.83;;
68653;SDS011;55636;51.108;13.622;2022-11-06T06:45:17;6.23;;;5.37;;
68653;SDS011;55636;51.108;13.622;2022-11-06T06:46:19;6.90;;;5.37;;
68653;SDS011;55636;51.108;13.622;2022-11-06T06:47:22;6.37;;;5.77;;
68653;SDS011;55636;51.108;13.622;2022-11-06T06:48:24;7.17;;;6.20;;
68653;SDS011;55636;51.108;13.622;2022-11-06T06:49:27;6.50;;;5.40;;
68653;SDS011;55636;51.108;13.622;2022-11-06T06:50:30;6.80;;;5.50;;
68653;SDS011;55636;51.108;13.622;2022-11-06T06:51:33;7.07;;;5.70;;
68653;SDS011;55636;51.108;13.622;2022-11-06T06:52:35;7.87;;;6.33;;
68653;SDS011;55636;51.108;13.622;2022-11-06T06:53:37;6.73;;;5.90;;
68653;SDS011;55636;51.108;13.622;2022-11-06T06:54:39;7.43;;;6.03;;
68653;SDS011;55636;51.108;13.622;2022-11-06T06:55:42;7.77;;;5.90;;
68653;SDS011;55636;51.108;13.622;2022-11-06T06:56:44;6.90;;;5.50;;
68653;SDS011;55636;51.108;13.622;2022-11-06T06:57:54;7.37;;;5.90;;
68653;SDS011;55636;51.108;13.622;2022-11-06T06:59:00;7.53;;;5.83;;
68653;SDS011;55636;51.108;13.622;2022-11-06T07:00:05;7.17;;;5.83;;
68653;SDS011;55636;51.108;13.622;2022-11-06T07:01:08;7.50;;;6.00;;
68653;SDS011;55636;51.108;13.622;2022-11-06T07:02:11;8.60;;;6.20;;
68653;SDS011;55636;51.108;13.622;2022-11-06T07:03:14;6.80;;;6.10;;
68653;SDS011;55636;51.108;13.622;2022-11-06T07:04:16;7.53;;;6.00;;
68653;SDS011;55636;51.108;13.622;2022-11-06T07:05:19;7.33;;;6.00;;
68653;SDS011;55636;51.108;13.622;2022-11-06T07:06:21;10.43;;;6.53;;
68653;SDS011;55636;51.108;13.622;2022-11-06T07:07:23;8.03;;;6.77;;
68653;SDS011;55636;51.108;13.622;2022-11-06T07:08:26;9.17;;;7.20;;
68653;SDS011;55636;51.108;13.622;2022-11-06T07:09:29;8.17;;;6.57;;